Terminal Aerodrome Forecast
Issued by NWS Albany, NY

Home | Current Version | Previous Version | Text Only | Print | Product List | Glossary On
Versions: 1 2 3 4 5 6 7 8 9 10 11 12 13
000
FTUS41 KALY 040543
TAFPOU
TAF
KPOU 040543Z 0406/0506 00000KT P6SM SCT100
     FM041400 20007KT P6SM SKC
     FM041800 23012G22KT P6SM SCT080 SCT250
     FM050000 22008KT P6SM SCT080 BKN250
     FM050400 19006KT P6SM SCT050 SCT080 BKN250=

USA.gov is the U.S. government's official web portal to all federal, state and local government web resources and services.